createdAt,value
2018-08-03T00:03:08.677Z,100862.06
2018-08-03T00:13:11.191Z,100868.21
2018-08-03T00:23:13.609Z,100877.80
2018-08-03T00:33:16.105Z,100877.66
2018-08-03T00:43:18.584Z,100871.75
2018-08-03T00:53:21.095Z,100866.72
2018-08-03T01:03:23.449Z,100873.21
2018-08-03T01:13:26.027Z,100869.70
2018-08-03T01:23:28.466Z,100857.75
2018-08-03T01:33:30.879Z,100862.18
2018-08-03T01:43:33.304Z,100848.35
2018-08-03T01:53:35.636Z,100843.89
2018-08-03T02:03:38.453Z,100834.83
2018-08-03T02:13:41.171Z,100845.00
2018-08-03T02:23:43.491Z,100849.60
2018-08-03T02:33:46.001Z,100861.41
2018-08-03T02:43:48.798Z,100864.37
2018-08-03T02:53:51.293Z,100872.15
2018-08-03T03:03:53.728Z,100862.34
2018-08-03T03:13:56.107Z,100874.77
2018-08-03T03:23:58.572Z,100882.83
2018-08-03T03:34:00.903Z,100873.44
2018-08-03T03:44:03.404Z,100875.34
2018-08-03T03:54:05.974Z,100887.14
2018-08-03T04:04:08.645Z,100885.17
2018-08-03T04:14:11.276Z,100888.94
2018-08-03T04:24:13.826Z,100896.20
2018-08-03T04:34:16.356Z,100901.71
2018-08-03T04:44:18.894Z,100899.88
2018-08-03T04:54:21.573Z,100906.88
2018-08-03T05:04:24.066Z,100911.17
2018-08-03T05:14:26.575Z,100916.92
2018-08-03T05:24:29.076Z,100920.17
2018-08-03T05:34:34.774Z,100932.37
2018-08-03T05:44:37.220Z,100942.61
2018-08-03T05:54:39.854Z,100935.74
2018-08-03T06:04:42.240Z,100937.66
2018-08-03T06:14:44.594Z,100949.95
2018-08-03T06:24:47.105Z,100947.05
2018-08-03T06:34:49.464Z,100933.77
2018-08-03T06:44:51.811Z,100935.09
2018-08-03T06:54:54.367Z,100940.09
2018-08-03T07:04:56.786Z,100941.86
2018-08-03T07:14:59.217Z,100943.72
2018-08-03T07:25:01.666Z,100933.61
2018-08-03T07:35:04.236Z,100919.59
2018-08-03T07:45:06.805Z,100924.42
2018-08-03T07:55:09.240Z,100924.95
2018-08-03T08:05:11.877Z,100926.23
2018-08-03T08:15:14.355Z,100932.94
2018-08-03T08:25:16.793Z,100923.72
2018-08-03T08:35:19.162Z,100917.28
2018-08-03T08:45:21.722Z,100909.33
2018-08-03T08:55:43.043Z,100901.82
2018-08-03T09:05:46.001Z,100896.09
2018-08-03T09:15:49.150Z,100899.78
2018-08-03T09:25:52.336Z,100888.37
2018-08-03T09:35:55.420Z,100878.40
2018-08-03T09:45:58.420Z,100865.27
2018-08-03T09:56:00.818Z,100859.19
2018-08-03T10:06:03.204Z,100855.58
2018-08-03T10:16:05.680Z,100847.98
2018-08-03T10:26:08.029Z,100835.75
2018-08-03T10:36:10.537Z,100816.30
2018-08-03T10:46:13.142Z,100811.86
2018-08-03T10:56:15.565Z,100807.63
2018-08-03T11:06:17.944Z,100790.38
2018-08-03T11:16:20.530Z,100782.21
2018-08-03T11:26:22.945Z,100772.91
2018-08-03T11:36:25.269Z,100760.53
2018-08-03T11:46:27.618Z,100755.61
2018-08-03T11:56:30.097Z,100737.98
2018-08-03T12:06:32.487Z,100730.96
2018-08-03T12:16:35.265Z,100720.49
2018-08-03T12:26:37.683Z,100724.78
2018-08-03T12:36:40.054Z,100705.33
2018-08-03T12:46:42.632Z,100695.73
2018-08-03T12:56:45.224Z,100681.11
2018-08-03T13:06:48.849Z,100665.23
2018-08-03T13:16:51.401Z,100662.09
2018-08-03T13:26:53.909Z,100650.37
2018-08-03T13:36:56.396Z,100636.38
2018-08-03T13:46:58.729Z,100633.13
2018-08-03T13:57:01.689Z,100633.21
2018-08-03T14:07:04.734Z,100629.15
2018-08-03T14:17:08.008Z,100615.38
2018-08-03T14:27:11.178Z,100587.13
2018-08-03T14:37:14.250Z,100578.66
2018-08-03T14:47:17.208Z,100567.94
2018-08-03T14:57:20.317Z,100562.17
2018-08-03T15:07:23.284Z,100556.48
2018-08-03T15:17:26.421Z,100548.58
2018-08-03T15:27:29.583Z,100533.99
2018-08-03T15:37:32.677Z,100535.42
2018-08-03T15:47:35.728Z,100523.23
2018-08-03T15:57:38.817Z,100524.50
2018-08-03T16:07:41.948Z,100522.67
2018-08-03T16:17:45.074Z,100517.53
2018-08-03T16:27:48.177Z,100507.32
2018-08-03T16:37:51.147Z,100508.42
2018-08-03T16:47:54.307Z,100515.30
2018-08-03T16:57:57.409Z,100509.61
2018-08-03T17:08:00.353Z,100512.20
2018-08-03T17:18:03.472Z,100506.98
2018-08-03T17:28:06.452Z,100500.66
2018-08-03T17:38:09.734Z,100487.73
2018-08-03T17:48:12.681Z,100494.40
2018-08-03T17:58:15.652Z,100499.38
2018-08-03T18:08:18.808Z,100506.89
2018-08-03T18:18:21.924Z,100513.55
2018-08-03T18:28:25.071Z,100509.70
2018-08-03T18:38:28.190Z,100526.16
2018-08-03T18:48:31.165Z,100536.69
2018-08-03T18:58:34.358Z,100546.77
2018-08-03T19:08:37.485Z,100549.25
2018-08-03T19:18:40.686Z,100549.00
2018-08-03T19:28:43.710Z,100549.95
2018-08-03T19:38:46.850Z,100542.50
2018-08-03T19:48:49.980Z,100549.26
2018-08-03T19:58:53.449Z,100551.63
2018-08-03T20:08:56.568Z,100554.61
2018-08-03T20:18:59.601Z,100546.34
2018-08-03T20:29:02.601Z,100552.95
2018-08-03T20:39:08.424Z,100563.20
2018-08-03T20:49:11.936Z,100570.38
2018-08-03T20:59:15.070Z,100569.66
2018-08-03T21:09:18.318Z,100568.15
2018-08-03T21:19:21.362Z,100566.92
2018-08-03T21:29:25.328Z,100570.10
2018-08-03T21:39:28.442Z,100569.22
2018-08-03T21:49:31.585Z,100561.31
2018-08-03T21:59:35.009Z,100568.13
2018-08-03T22:09:38.057Z,100567.10
2018-08-03T22:19:41.581Z,100557.80
2018-08-03T22:29:45.870Z,100569.73
2018-08-03T22:39:48.925Z,100568.87
2018-08-03T22:49:52.414Z,100564.14
2018-08-03T22:59:56.288Z,100565.66
2018-08-03T23:09:59.348Z,100564.92
2018-08-03T23:20:02.340Z,100554.48
2018-08-03T23:30:07.144Z,100545.61
2018-08-03T23:40:10.294Z,100554.38
2018-08-03T23:50:16.431Z,100558.72
